sensor_id;sensor_type;location;lat;lon;timestamp;pressure;altitude;pressure_sealevel;temperature;humidity
1401;BME280;46518;48.842;8.926;2022-08-19T00:02:01;96738.16;;;21.30;69.86
1401;BME280;46518;48.842;8.926;2022-08-19T00:04:31;96727.31;;;21.26;69.97
1401;BME280;46518;48.842;8.926;2022-08-19T00:07:02;96734.94;;;21.16;70.41
1401;BME280;46518;48.842;8.926;2022-08-19T00:09:31;96731.13;;;21.17;70.45
1401;BME280;46518;48.842;8.926;2022-08-19T00:12:01;96734.84;;;21.03;70.92
1401;BME280;46518;48.842;8.926;2022-08-19T00:14:30;96726.81;;;21.03;71.18
1401;BME280;46518;48.842;8.926;2022-08-19T00:16:59;96724.91;;;21.04;71.35
1401;BME280;46518;48.842;8.926;2022-08-19T00:19:27;96731.38;;;21.03;71.28
1401;BME280;46518;48.842;8.926;2022-08-19T00:21:56;96740.84;;;21.00;71.51
1401;BME280;46518;48.842;8.926;2022-08-19T00:24:25;96728.00;;;20.85;72.10
1401;BME280;46518;48.842;8.926;2022-08-19T00:26:55;96731.88;;;20.96;71.46
1401;BME280;46518;48.842;8.926;2022-08-19T00:29:45;96725.75;;;20.96;71.82
1401;BME280;46518;48.842;8.926;2022-08-19T00:32:19;96723.38;;;20.94;71.66
1401;BME280;46518;48.842;8.926;2022-08-19T00:34:47;96717.69;;;21.04;71.15
1401;BME280;46518;48.842;8.926;2022-08-19T00:37:16;96709.38;;;20.97;71.71
1401;BME280;46518;48.842;8.926;2022-08-19T00:39:44;96707.06;;;20.87;72.37
1401;BME280;46518;48.842;8.926;2022-08-19T00:42:15;96706.78;;;20.80;72.65
1401;BME280;46518;48.842;8.926;2022-08-19T00:44:44;96705.91;;;20.67;73.32
1401;BME280;46518;48.842;8.926;2022-08-19T00:47:13;96694.50;;;20.79;73.30
1401;BME280;46518;48.842;8.926;2022-08-19T00:49:45;96678.69;;;20.65;73.60
1401;BME280;46518;48.842;8.926;2022-08-19T00:52:20;96691.56;;;20.54;74.19
1401;BME280;46518;48.842;8.926;2022-08-19T00:54:50;96693.34;;;20.50;74.44
1401;BME280;46518;48.842;8.926;2022-08-19T00:57:23;96691.91;;;20.61;74.13
1401;BME280;46518;48.842;8.926;2022-08-19T00:59:56;96690.03;;;20.53;74.45
1401;BME280;46518;48.842;8.926;2022-08-19T01:02:30;96686.88;;;20.60;74.04
1401;BME280;46518;48.842;8.926;2022-08-19T01:05:02;96702.16;;;20.59;74.21
1401;BME280;46518;48.842;8.926;2022-08-19T01:07:33;96703.88;;;20.55;74.33
1401;BME280;46518;48.842;8.926;2022-08-19T01:10:06;96708.78;;;20.44;74.82
1401;BME280;46518;48.842;8.926;2022-08-19T01:12:35;96702.28;;;20.54;74.82
1401;BME280;46518;48.842;8.926;2022-08-19T01:15:07;96707.19;;;20.52;74.63
1401;BME280;46518;48.842;8.926;2022-08-19T01:17:38;96709.50;;;20.54;74.56
1401;BME280;46518;48.842;8.926;2022-08-19T01:20:12;96713.78;;;20.46;75.02
1401;BME280;46518;48.842;8.926;2022-08-19T01:22:44;96710.16;;;20.51;74.92
1401;BME280;46518;48.842;8.926;2022-08-19T01:25:13;96708.59;;;20.50;74.94
1401;BME280;46518;48.842;8.926;2022-08-19T01:27:45;96704.69;;;20.47;75.03
1401;BME280;46518;48.842;8.926;2022-08-19T01:30:17;96698.88;;;20.36;75.56
1401;BME280;46518;48.842;8.926;2022-08-19T01:32:46;96692.09;;;20.39;75.25
1401;BME280;46518;48.842;8.926;2022-08-19T01:35:15;96698.41;;;20.34;75.11
1401;BME280;46518;48.842;8.926;2022-08-19T01:37:49;96699.03;;;20.40;75.00
1401;BME280;46518;48.842;8.926;2022-08-19T01:40:20;96693.22;;;20.38;75.59
1401;BME280;46518;48.842;8.926;2022-08-19T01:42:49;96686.19;;;20.24;75.81
1401;BME280;46518;48.842;8.926;2022-08-19T01:45:19;96686.00;;;20.21;75.98
1401;BME280;46518;48.842;8.926;2022-08-19T01:48:14;96697.31;;;20.26;75.56
1401;BME280;46518;48.842;8.926;2022-08-19T01:50:42;96707.22;;;20.35;75.69
1401;BME280;46518;48.842;8.926;2022-08-19T01:53:12;96701.72;;;20.31;76.00
1401;BME280;46518;48.842;8.926;2022-08-19T01:55:42;96694.19;;;20.24;76.07
1401;BME280;46518;48.842;8.926;2022-08-19T01:58:13;96694.81;;;20.30;75.95
1401;BME280;46518;48.842;8.926;2022-08-19T02:00:42;96696.53;;;20.26;76.19
1401;BME280;46518;48.842;8.926;2022-08-19T02:03:12;96698.13;;;20.18;76.70
1401;BME280;46518;48.842;8.926;2022-08-19T02:05:41;96700.03;;;20.18;76.73
1401;BME280;46518;48.842;8.926;2022-08-19T02:08:11;96697.03;;;20.19;77.27
1401;BME280;46518;48.842;8.926;2022-08-19T02:10:41;96707.88;;;20.14;77.03
1401;BME280;46518;48.842;8.926;2022-08-19T02:13:11;96708.19;;;20.21;76.63
1401;BME280;46518;48.842;8.926;2022-08-19T02:15:40;96719.03;;;20.25;76.73
1401;BME280;46518;48.842;8.926;2022-08-19T02:18:09;96707.72;;;20.11;76.79
1401;BME280;46518;48.842;8.926;2022-08-19T02:20:38;96700.81;;;20.10;76.92
1401;BME280;46518;48.842;8.926;2022-08-19T02:23:07;96702.06;;;20.12;77.02
1401;BME280;46518;48.842;8.926;2022-08-19T02:25:44;96697.66;;;20.16;76.98
1401;BME280;46518;48.842;8.926;2022-08-19T02:28:14;96703.50;;;20.01;77.67
1401;BME280;46518;48.842;8.926;2022-08-19T02:30:46;96695.66;;;20.04;77.88
1401;BME280;46518;48.842;8.926;2022-08-19T02:33:14;96697.50;;;20.13;77.46
1401;BME280;46518;48.842;8.926;2022-08-19T02:35:43;96687.94;;;20.03;77.65
1401;BME280;46518;48.842;8.926;2022-08-19T02:38:12;96695.16;;;20.11;77.84
1401;BME280;46518;48.842;8.926;2022-08-19T02:40:59;96695.66;;;20.04;78.07
1401;BME280;46518;48.842;8.926;2022-08-19T02:43:30;96696.44;;;19.96;78.73
1401;BME280;46518;48.842;8.926;2022-08-19T02:46:01;96688.28;;;19.93;78.94
1401;BME280;46518;48.842;8.926;2022-08-19T02:48:30;96685.16;;;19.82;79.21
1401;BME280;46518;48.842;8.926;2022-08-19T02:50:59;96691.72;;;19.76;79.69
1401;BME280;46518;48.842;8.926;2022-08-19T02:53:28;96680.59;;;19.82;79.32
1401;BME280;46518;48.842;8.926;2022-08-19T02:55:57;96683.56;;;19.90;79.27
1401;BME280;46518;48.842;8.926;2022-08-19T02:58:26;96675.22;;;19.91;78.76
1401;BME280;46518;48.842;8.926;2022-08-19T03:00:56;96685.59;;;19.93;78.60
1401;BME280;46518;48.842;8.926;2022-08-19T03:03:24;96681.50;;;19.87;78.99
1401;BME280;46518;48.842;8.926;2022-08-19T03:06:03;96680.41;;;19.96;78.21
1401;BME280;46518;48.842;8.926;2022-08-19T03:08:31;96694.69;;;20.00;78.15
1401;BME280;46518;48.842;8.926;2022-08-19T03:11:01;96695.66;;;19.96;78.27
1401;BME280;46518;48.842;8.926;2022-08-19T03:13:29;96710.72;;;20.00;78.18
1401;BME280;46518;48.842;8.926;2022-08-19T03:15:58;96699.56;;;19.98;78.16
1401;BME280;46518;48.842;8.926;2022-08-19T03:18:26;96703.03;;;19.90;78.56
1401;BME280;46518;48.842;8.926;2022-08-19T03:20:54;96702.09;;;19.95;78.41
1401;BME280;46518;48.842;8.926;2022-08-19T03:23:23;96698.81;;;19.80;79.02
1401;BME280;46518;48.842;8.926;2022-08-19T03:25:52;96705.53;;;19.87;79.13
1401;BME280;46518;48.842;8.926;2022-08-19T03:28:42;96710.44;;;19.85;78.86
1401;BME280;46518;48.842;8.926;2022-08-19T03:31:24;96703.97;;;19.68;79.94
1401;BME280;46518;48.842;8.926;2022-08-19T03:34:18;96701.94;;;19.82;79.18
1401;BME280;46518;48.842;8.926;2022-08-19T03:36:47;96700.84;;;19.75;79.75
1401;BME280;46518;48.842;8.926;2022-08-19T03:39:16;96698.66;;;19.77;79.69
1401;BME280;46518;48.842;8.926;2022-08-19T03:41:46;96696.94;;;19.72;79.68
1401;BME280;46518;48.842;8.926;2022-08-19T03:44:37;96694.09;;;19.77;79.66
1401;BME280;46518;48.842;8.926;2022-08-19T03:47:05;96697.22;;;19.88;79.36
1401;BME280;46518;48.842;8.926;2022-08-19T03:49:33;96698.00;;;19.89;79.26
1401;BME280;46518;48.842;8.926;2022-08-19T03:52:04;96694.38;;;19.93;78.98
1401;BME280;46518;48.842;8.926;2022-08-19T03:54:35;96697.22;;;19.97;78.84
1401;BME280;46518;48.842;8.926;2022-08-19T03:57:04;96697.84;;;20.02;78.21
1401;BME280;46518;48.842;8.926;2022-08-19T03:59:37;96698.00;;;20.06;78.08
1401;BME280;46518;48.842;8.926;2022-08-19T04:02:09;96706.63;;;20.03;78.10
1401;BME280;46518;48.842;8.926;2022-08-19T04:04:39;96717.31;;;20.03;78.15
1401;BME280;46518;48.842;8.926;2022-08-19T04:07:08;96718.44;;;20.02;78.23
1401;BME280;46518;48.842;8.926;2022-08-19T04:09:37;96721.72;;;20.08;78.28
1401;BME280;46518;48.842;8.926;2022-08-19T04:12:06;96729.56;;;20.04;78.56
1401;BME280;46518;48.842;8.926;2022-08-19T04:14:35;96725.03;;;20.04;78.89
1401;BME280;46518;48.842;8.926;2022-08-19T04:17:03;96724.41;;;20.08;78.45
1401;BME280;46518;48.842;8.926;2022-08-19T04:19:34;96726.13;;;20.03;78.82
1401;BME280;46518;48.842;8.926;2022-08-19T04:22:03;96721.41;;;20.00;78.95
1401;BME280;46518;48.842;8.926;2022-08-19T04:24:32;96718.72;;;20.09;78.96
1401;BME280;46518;48.842;8.926;2022-08-19T04:27:02;96719.19;;;20.11;78.63
1401;BME280;46518;48.842;8.926;2022-08-19T04:29:30;96723.91;;;20.06;79.09
1401;BME280;46518;48.842;8.926;2022-08-19T04:31:59;96717.16;;;20.08;79.44
1401;BME280;46518;48.842;8.926;2022-08-19T04:34:37;96720.31;;;20.01;79.44
1401;BME280;46518;48.842;8.926;2022-08-19T04:37:26;96716.69;;;19.89;80.40
1401;BME280;46518;48.842;8.926;2022-08-19T04:40:04;96715.63;;;19.90;80.45
1401;BME280;46518;48.842;8.926;2022-08-19T04:42:49;96713.88;;;19.85;80.71
1401;BME280;46518;48.842;8.926;2022-08-19T04:45:18;96719.69;;;19.78;81.00
1401;BME280;46518;48.842;8.926;2022-08-19T04:47:49;96702.56;;;19.62;81.40
1401;BME280;46518;48.842;8.926;2022-08-19T04:50:44;96718.88;;;19.60;82.36
1401;BME280;46518;48.842;8.926;2022-08-19T04:53:12;96721.38;;;19.48;83.08
1401;BME280;46518;48.842;8.926;2022-08-19T04:55:41;96716.81;;;19.49;83.25
1401;BME280;46518;48.842;8.926;2022-08-19T04:58:09;96725.78;;;19.53;83.23
1401;BME280;46518;48.842;8.926;2022-08-19T05:00:38;96725.16;;;19.56;82.94
1401;BME280;46518;48.842;8.926;2022-08-19T05:03:07;96725.78;;;19.53;82.89
1401;BME280;46518;48.842;8.926;2022-08-19T05:05:38;96728.44;;;19.53;83.16
1401;BME280;46518;48.842;8.926;2022-08-19T05:08:14;96737.72;;;19.64;82.96
1401;BME280;46518;48.842;8.926;2022-08-19T05:10:57;96730.31;;;19.61;82.98
1401;BME280;46518;48.842;8.926;2022-08-19T05:13:26;96741.50;;;19.63;83.19
1401;BME280;46518;48.842;8.926;2022-08-19T05:15:55;96746.84;;;19.72;82.43
1401;BME280;46518;48.842;8.926;2022-08-19T05:18:25;96748.25;;;19.69;82.81
1401;BME280;46518;48.842;8.926;2022-08-19T05:21:14;96743.72;;;19.78;82.27
1401;BME280;46518;48.842;8.926;2022-08-19T05:24:01;96758.34;;;19.81;81.89
1401;BME280;46518;48.842;8.926;2022-08-19T05:26:29;96766.94;;;19.69;83.21
1401;BME280;46518;48.842;8.926;2022-08-19T05:28:58;96766.78;;;19.57;83.29
1401;BME280;46518;48.842;8.926;2022-08-19T05:31:26;96769.41;;;19.39;84.21
1401;BME280;46518;48.842;8.926;2022-08-19T05:33:54;96779.47;;;19.51;84.31
1401;BME280;46518;48.842;8.926;2022-08-19T05:36:22;96784.78;;;19.43;84.75
1401;BME280;46518;48.842;8.926;2022-08-19T05:38:50;96789.66;;;19.40;85.33
1401;BME280;46518;48.842;8.926;2022-08-19T05:41:22;96797.50;;;19.54;84.56
1401;BME280;46518;48.842;8.926;2022-08-19T05:43:57;96812.28;;;19.52;84.45
1401;BME280;46518;48.842;8.926;2022-08-19T05:46:25;96819.31;;;19.39;85.16
1401;BME280;46518;48.842;8.926;2022-08-19T05:48:54;96824.69;;;19.48;84.92
1401;BME280;46518;48.842;8.926;2022-08-19T05:51:23;96821.72;;;19.58;84.34
1401;BME280;46518;48.842;8.926;2022-08-19T05:53:55;96817.31;;;19.53;84.20
1401;BME280;46518;48.842;8.926;2022-08-19T05:56:26;96812.41;;;19.47;84.51
1401;BME280;46518;48.842;8.926;2022-08-19T05:58:54;96815.75;;;19.52;84.43
1401;BME280;46518;48.842;8.926;2022-08-19T06:01:25;96815.13;;;19.55;84.10
1401;BME280;46518;48.842;8.926;2022-08-19T06:03:53;96813.06;;;19.52;84.29
1401;BME280;46518;48.842;8.926;2022-08-19T06:06:22;96809.44;;;19.39;84.52
1401;BME280;46518;48.842;8.926;2022-08-19T06:08:50;96808.63;;;19.39;84.81
1401;BME280;46518;48.842;8.926;2022-08-19T06:11:21;96805.03;;;19.44;84.44
1401;BME280;46518;48.842;8.926;2022-08-19T06:13:53;96806.47;;;19.50;84.55
1401;BME280;46518;48.842;8.926;2022-08-19T06:16:26;96800.03;;;19.42;84.39
1401;BME280;46518;48.842;8.926;2022-08-19T06:18:55;96802.06;;;19.54;83.91
1401;BME280;46518;48.842;8.926;2022-08-19T06:21:27;96806.47;;;19.50;84.08
1401;BME280;46518;48.842;8.926;2022-08-19T06:23:56;96801.13;;;19.50;83.68
1401;BME280;46518;48.842;8.926;2022-08-19T06:26:26;96801.78;;;19.55;83.76
1401;BME280;46518;48.842;8.926;2022-08-19T06:28:56;96791.06;;;19.47;84.02
1401;BME280;46518;48.842;8.926;2022-08-19T06:31:26;96796.44;;;19.64;83.41
1401;BME280;46518;48.842;8.926;2022-08-19T06:33:55;96797.91;;;19.70;82.96
1401;BME280;46518;48.842;8.926;2022-08-19T06:36:26;96792.41;;;19.75;82.24
1401;BME280;46518;48.842;8.926;2022-08-19T06:38:58;96796.16;;;19.74;82.82
1401;BME280;46518;48.842;8.926;2022-08-19T06:41:28;96794.91;;;19.72;82.10
1401;BME280;46518;48.842;8.926;2022-08-19T06:43:58;96796.50;;;19.81;82.09
1401;BME280;46518;48.842;8.926;2022-08-19T06:46:26;96798.09;;;19.82;81.74
1401;BME280;46518;48.842;8.926;2022-08-19T06:48:59;96791.00;;;19.78;81.87
1401;BME280;46518;48.842;8.926;2022-08-19T06:51:28;96799.31;;;19.76;82.22
1401;BME280;46518;48.842;8.926;2022-08-19T06:53:58;96800.56;;;19.79;81.90
1401;BME280;46518;48.842;8.926;2022-08-19T06:56:28;96803.56;;;19.86;81.72
1401;BME280;46518;48.842;8.926;2022-08-19T06:59:03;96808.47;;;19.93;81.45
1401;BME280;46518;48.842;8.926;2022-08-19T07:01:35;96819.47;;;20.00;81.11
1401;BME280;46518;48.842;8.926;2022-08-19T07:04:05;96814.59;;;20.02;80.67
1401;BME280;46518;48.842;8.926;2022-08-19T07:06:37;96814.59;;;20.02;80.68
1401;BME280;46518;48.842;8.926;2022-08-19T07:09:12;96812.69;;;19.85;81.28
1401;BME280;46518;48.842;8.926;2022-08-19T07:11:45;96810.97;;;19.98;81.21
1401;BME280;46518;48.842;8.926;2022-08-19T07:14:18;96822.44;;;19.98;80.60
1401;BME280;46518;48.842;8.926;2022-08-19T07:16:48;96820.41;;;20.04;80.83
1401;BME280;46518;48.842;8.926;2022-08-19T07:19:19;96820.56;;;20.08;80.57
1401;BME280;46518;48.842;8.926;2022-08-19T07:21:49;96819.31;;;20.05;80.61
1401;BME280;46518;48.842;8.926;2022-08-19T07:24:21;96821.19;;;20.04;80.97
1401;BME280;46518;48.842;8.926;2022-08-19T07:26:52;96824.97;;;20.03;80.81
1401;BME280;46518;48.842;8.926;2022-08-19T07:29:23;96821.34;;;20.08;80.59
1401;BME280;46518;48.842;8.926;2022-08-19T07:31:55;96842.56;;;20.13;80.58
1401;BME280;46518;48.842;8.926;2022-08-19T07:34:28;96822.91;;;20.09;80.01
1401;BME280;46518;48.842;8.926;2022-08-19T07:36:56;96834.09;;;20.20;80.46
1401;BME280;46518;48.842;8.926;2022-08-19T07:39:28;96833.16;;;20.24;80.04
1401;BME280;46518;48.842;8.926;2022-08-19T07:42:00;96826.22;;;20.32;79.67
1401;BME280;46518;48.842;8.926;2022-08-19T07:44:30;96833.78;;;20.30;79.29
1401;BME280;46518;48.842;8.926;2022-08-19T07:46:58;96829.84;;;20.28;79.73
1401;BME280;46518;48.842;8.926;2022-08-19T07:49:27;96836.75;;;20.29;79.20
1401;BME280;46518;48.842;8.926;2022-08-19T07:51:58;96832.03;;;20.25;79.15
1401;BME280;46518;48.842;8.926;2022-08-19T07:54:31;96829.06;;;20.27;79.38
1401;BME280;46518;48.842;8.926;2022-08-19T07:57:01;96823.88;;;20.31;79.50
1401;BME280;46518;48.842;8.926;2022-08-19T07:59:31;96824.97;;;20.38;78.98
1401;BME280;46518;48.842;8.926;2022-08-19T08:01:59;96827.16;;;20.36;78.95
1401;BME280;46518;48.842;8.926;2022-08-19T08:04:30;96813.97;;;20.40;78.66
1401;BME280;46518;48.842;8.926;2022-08-19T08:07:16;96833.28;;;20.45;78.28
1401;BME280;46518;48.842;8.926;2022-08-19T08:10:03;96831.72;;;20.53;78.36
1401;BME280;46518;48.842;8.926;2022-08-19T08:12:39;96830.75;;;20.49;77.87
1401;BME280;46518;48.842;8.926;2022-08-19T08:15:12;96834.84;;;20.46;77.93
1401;BME280;46518;48.842;8.926;2022-08-19T08:17:43;96841.63;;;20.70;77.86
1401;BME280;46518;48.842;8.926;2022-08-19T08:20:18;96840.19;;;20.81;76.33
1401;BME280;46518;48.842;8.926;2022-08-19T08:22:47;96843.03;;;20.85;75.79
1401;BME280;46518;48.842;8.926;2022-08-19T08:25:34;96852.78;;;20.89;75.56
1401;BME280;46518;48.842;8.926;2022-08-19T08:28:03;96839.22;;;20.95;75.31
1401;BME280;46518;48.842;8.926;2022-08-19T08:30:33;96846.44;;;20.94;75.38
1401;BME280;46518;48.842;8.926;2022-08-19T08:33:03;96845.00;;;21.05;75.00
1401;BME280;46518;48.842;8.926;2022-08-19T08:35:32;96852.72;;;20.98;74.85
1401;BME280;46518;48.842;8.926;2022-08-19T08:38:02;96855.28;;;20.86;75.23
1401;BME280;46518;48.842;8.926;2022-08-19T08:40:39;96855.41;;;20.98;75.16
1401;BME280;46518;48.842;8.926;2022-08-19T08:43:24;96858.84;;;21.07;74.96
1401;BME280;46518;48.842;8.926;2022-08-19T08:46:03;96854.09;;;21.13;74.18
1401;BME280;46518;48.842;8.926;2022-08-19T08:48:42;96857.75;;;21.08;74.39
1401;BME280;46518;48.842;8.926;2022-08-19T08:51:22;96849.56;;;21.05;74.66
1401;BME280;46518;48.842;8.926;2022-08-19T08:54:02;96851.31;;;21.09;74.57
1401;BME280;46518;48.842;8.926;2022-08-19T08:56:38;96862.28;;;21.17;74.67
1401;BME280;46518;48.842;8.926;2022-08-19T08:59:12;96855.28;;;21.33;74.06
1401;BME280;46518;48.842;8.926;2022-08-19T09:01:45;96865.31;;;21.53;73.21
1401;BME280;46518;48.842;8.926;2022-08-19T09:04:13;96858.72;;;21.51;73.15
1401;BME280;46518;48.842;8.926;2022-08-19T09:06:53;96864.22;;;21.54;72.83
1401;BME280;46518;48.842;8.926;2022-08-19T09:09:26;96857.56;;;21.61;72.49
1401;BME280;46518;48.842;8.926;2022-08-19T09:12:05;96844.81;;;21.58;72.79
1401;BME280;46518;48.842;8.926;2022-08-19T09:14:45;96845.75;;;21.62;72.91
1401;BME280;46518;48.842;8.926;2022-08-19T09:17:25;96855.94;;;21.68;72.71
1401;BME280;46518;48.842;8.926;2022-08-19T09:19:59;96859.38;;;21.78;72.06
1401;BME280;46518;48.842;8.926;2022-08-19T09:22:36;96850.09;;;21.75;71.76
1401;BME280;46518;48.842;8.926;2022-08-19T09:25:05;96857.19;;;21.71;71.95
1401;BME280;46518;48.842;8.926;2022-08-19T09:27:36;96864.75;;;21.69;72.12
1401;BME280;46518;48.842;8.926;2022-08-19T09:30:12;96861.19;;;21.65;72.21
1401;BME280;46518;48.842;8.926;2022-08-19T09:32:43;96865.69;;;21.73;72.08
1401;BME280;46518;48.842;8.926;2022-08-19T09:35:13;96859.06;;;21.79;72.27
1401;BME280;46518;48.842;8.926;2022-08-19T09:37:42;96860.16;;;21.78;71.63
1401;BME280;46518;48.842;8.926;2022-08-19T09:40:11;96862.41;;;21.67;71.83
1401;BME280;46518;48.842;8.926;2022-08-19T09:42:42;96856.28;;;21.67;71.70
1401;BME280;46518;48.842;8.926;2022-08-19T09:45:21;96863.00;;;21.73;71.53
1401;BME280;46518;48.842;8.926;2022-08-19T09:47:52;96870.56;;;21.80;71.08
1401;BME280;46518;48.842;8.926;2022-08-19T09:50:22;96863.97;;;21.98;70.22
1401;BME280;46518;48.842;8.926;2022-08-19T09:52:51;96862.06;;;21.98;70.21
1401;BME280;46518;48.842;8.926;2022-08-19T09:55:24;96872.22;;;22.14;69.51
1401;BME280;46518;48.842;8.926;2022-08-19T09:58:00;96875.03;;;22.17;69.26
1401;BME280;46518;48.842;8.926;2022-08-19T10:00:28;96870.03;;;22.37;69.22
1401;BME280;46518;48.842;8.926;2022-08-19T10:02:59;96873.50;;;22.37;68.03
1401;BME280;46518;48.842;8.926;2022-08-19T10:05:29;96875.03;;;22.17;68.18
1401;BME280;46518;48.842;8.926;2022-08-19T10:08:17;96875.91;;;22.30;67.96
1401;BME280;46518;48.842;8.926;2022-08-19T10:10:47;96869.38;;;22.19;67.58
1401;BME280;46518;48.842;8.926;2022-08-19T10:13:19;96874.34;;;22.29;67.83
1401;BME280;46518;48.842;8.926;2022-08-19T10:15:53;96876.50;;;22.36;66.98
1401;BME280;46518;48.842;8.926;2022-08-19T10:18:24;96876.84;;;22.34;66.53
1401;BME280;46518;48.842;8.926;2022-08-19T10:21:03;96874.84;;;22.44;66.46
1401;BME280;46518;48.842;8.926;2022-08-19T10:23:38;96868.19;;;22.50;65.48
1401;BME280;46518;48.842;8.926;2022-08-19T10:26:07;96869.81;;;22.63;65.46
1401;BME280;46518;48.842;8.926;2022-08-19T10:28:36;96868.88;;;22.80;63.90
1401;BME280;46518;48.842;8.926;2022-08-19T10:31:06;96866.28;;;22.83;63.92
1401;BME280;46518;48.842;8.926;2022-08-19T10:33:37;96875.38;;;22.91;64.34
1401;BME280;46518;48.842;8.926;2022-08-19T10:36:21;96872.47;;;22.96;63.55
1401;BME280;46518;48.842;8.926;2022-08-19T10:38:53;96877.34;;;23.03;63.58
1401;BME280;46518;48.842;8.926;2022-08-19T10:41:25;96869.44;;;23.07;63.21
1401;BME280;46518;48.842;8.926;2022-08-19T10:43:58;96861.91;;;23.00;62.95
1401;BME280;46518;48.842;8.926;2022-08-19T10:46:30;96856.44;;;23.09;62.90
1401;BME280;46518;48.842;8.926;2022-08-19T10:49:01;96855.78;;;23.12;62.75
1401;BME280;46518;48.842;8.926;2022-08-19T10:51:31;96843.59;;;23.14;63.09
1401;BME280;46518;48.842;8.926;2022-08-19T10:54:17;96837.34;;;23.22;62.92
1401;BME280;46518;48.842;8.926;2022-08-19T10:56:59;96825.25;;;23.29;62.14
1401;BME280;46518;48.842;8.926;2022-08-19T10:59:28;96819.47;;;23.39;62.68
1401;BME280;46518;48.842;8.926;2022-08-19T11:02:03;96822.34;;;23.58;59.93
1401;BME280;46518;48.842;8.926;2022-08-19T11:04:34;96819.78;;;23.62;59.61
1401;BME280;46518;48.842;8.926;2022-08-19T11:07:03;96822.59;;;23.78;58.73
1401;BME280;46518;48.842;8.926;2022-08-19T11:09:37;96823.13;;;23.83;57.85
1401;BME280;46518;48.842;8.926;2022-08-19T11:12:07;96827.81;;;23.99;56.98
1401;BME280;46518;48.842;8.926;2022-08-19T11:14:37;96832.53;;;24.02;56.74
1401;BME280;46518;48.842;8.926;2022-08-19T11:17:06;96827.25;;;23.93;56.81
1401;BME280;46518;48.842;8.926;2022-08-19T11:19:35;96830.31;;;23.92;57.09
1401;BME280;46518;48.842;8.926;2022-08-19T11:22:04;96831.28;;;23.99;57.87
1401;BME280;46518;48.842;8.926;2022-08-19T11:24:36;96822.22;;;24.04;56.64
1401;BME280;46518;48.842;8.926;2022-08-19T11:27:07;96821.09;;;24.05;56.31
1401;BME280;46518;48.842;8.926;2022-08-19T11:29:37;96824.22;;;24.07;56.17
1401;BME280;46518;48.842;8.926;2022-08-19T11:32:09;96827.88;;;24.15;56.55
1401;BME280;46518;48.842;8.926;2022-08-19T11:34:39;96829.66;;;24.23;56.50
1401;BME280;46518;48.842;8.926;2022-08-19T11:37:07;96815.94;;;24.00;55.39
1401;BME280;46518;48.842;8.926;2022-08-19T11:39:36;96834.63;;;24.08;55.32
1401;BME280;46518;48.842;8.926;2022-08-19T11:42:06;96833.06;;;24.07;54.36
1401;BME280;46518;48.842;8.926;2022-08-19T11:44:49;96838.66;;;24.15;54.20
1401;BME280;46518;48.842;8.926;2022-08-19T11:47:17;96833.28;;;24.02;53.84
1401;BME280;46518;48.842;8.926;2022-08-19T11:49:47;96837.66;;;24.07;53.95
1401;BME280;46518;48.842;8.926;2022-08-19T11:52:16;96836.66;;;24.11;53.48
1401;BME280;46518;48.842;8.926;2022-08-19T11:54:44;96834.25;;;24.22;53.15
1401;BME280;46518;48.842;8.926;2022-08-19T11:57:12;96827.63;;;24.32;53.42
1401;BME280;46518;48.842;8.926;2022-08-19T11:59:48;96827.50;;;24.28;52.90
1401;BME280;46518;48.842;8.926;2022-08-19T12:02:17;96830.88;;;24.25;52.06
1401;BME280;46518;48.842;8.926;2022-08-19T12:04:47;96823.50;;;24.22;51.86
1401;BME280;46518;48.842;8.926;2022-08-19T12:07:15;96832.06;;;24.40;52.08
1401;BME280;46518;48.842;8.926;2022-08-19T12:09:43;96824.50;;;24.58;51.37
1401;BME280;46518;48.842;8.926;2022-08-19T12:12:14;96824.81;;;24.69;50.97
1401;BME280;46518;48.842;8.926;2022-08-19T12:14:45;96828.59;;;24.68;49.50
1401;BME280;46518;48.842;8.926;2022-08-19T12:17:31;96822.56;;;24.87;49.76
1401;BME280;46518;48.842;8.926;2022-08-19T12:20:02;96811.47;;;25.04;49.45
1401;BME280;46518;48.842;8.926;2022-08-19T12:22:31;96811.22;;;25.09;49.06
1401;BME280;46518;48.842;8.926;2022-08-19T12:24:59;96805.72;;;25.06;49.20
1401;BME280;46518;48.842;8.926;2022-08-19T12:27:27;96804.28;;;25.24;48.92
1401;BME280;46518;48.842;8.926;2022-08-19T12:30:09;96800.13;;;25.27;48.08
1401;BME280;46518;48.842;8.926;2022-08-19T12:32:38;96795.16;;;25.29;47.42
1401;BME280;46518;48.842;8.926;2022-08-19T12:35:19;96800.81;;;25.39;45.83
1401;BME280;46518;48.842;8.926;2022-08-19T12:37:48;96804.88;;;25.33;46.47
1401;BME280;46518;48.842;8.926;2022-08-19T12:40:23;96787.06;;;25.13;46.77
1401;BME280;46518;48.842;8.926;2022-08-19T12:42:52;96800.47;;;25.25;47.09
1401;BME280;46518;48.842;8.926;2022-08-19T12:45:21;96804.88;;;25.33;47.42
1401;BME280;46518;48.842;8.926;2022-08-19T12:47:49;96799.47;;;25.33;46.68
1401;BME280;46518;48.842;8.926;2022-08-19T12:50:22;96795.69;;;25.34;46.87
1401;BME280;46518;48.842;8.926;2022-08-19T12:52:50;96803.50;;;25.39;46.25
1401;BME280;46518;48.842;8.926;2022-08-19T12:55:19;96808.50;;;25.57;47.44
1401;BME280;46518;48.842;8.926;2022-08-19T12:57:47;96810.50;;;25.60;46.62
1401;BME280;46518;48.842;8.926;2022-08-19T13:00:17;96806.88;;;25.52;45.30
1401;BME280;46518;48.842;8.926;2022-08-19T13:02:49;96810.78;;;25.55;45.38
1401;BME280;46518;48.842;8.926;2022-08-19T13:05:20;96811.03;;;25.50;45.58
1401;BME280;46518;48.842;8.926;2022-08-19T13:07:52;96811.91;;;25.54;45.29
1401;BME280;46518;48.842;8.926;2022-08-19T13:10:24;96811.34;;;25.29;45.17
1401;BME280;46518;48.842;8.926;2022-08-19T13:12:55;96814.34;;;25.11;46.47
1401;BME280;46518;48.842;8.926;2022-08-19T13:15:23;96830.78;;;25.22;45.39
1401;BME280;46518;48.842;8.926;2022-08-19T13:17:53;96816.72;;;25.29;45.46
1401;BME280;46518;48.842;8.926;2022-08-19T13:20:23;96819.03;;;25.30;45.13
1401;BME280;46518;48.842;8.926;2022-08-19T13:22:53;96816.63;;;25.41;43.78
1401;BME280;46518;48.842;8.926;2022-08-19T13:25:22;96807.28;;;25.38;43.86
1401;BME280;46518;48.842;8.926;2022-08-19T13:27:51;96817.91;;;25.47;44.06
1401;BME280;46518;48.842;8.926;2022-08-19T13:30:34;96806.25;;;25.59;43.95
1401;BME280;46518;48.842;8.926;2022-08-19T13:33:20;96810.44;;;25.56;44.01
1401;BME280;46518;48.842;8.926;2022-08-19T13:35:50;96820.41;;;25.56;43.43